Jean Anne — WDC3786 — position and weather

sailwx.info

Track history (hours):
 
Tides and Currents Weather Stations Pressure Air Temp Water Temp Dewpoint Dewpoint Depression Visibility Wind Speed Wind Dir Waves Ship Positions

Jean Anne

Owner: PASHA HAWAII TRANSPORT LINES LLC, National City, CA. More information available from US FCC via Universal Licensing System and Coast Guard Vessel Documentation Center.

Last reported at 2018-Feb-08 23:00 UTC. Time now 2018-Feb-19 00:09 UTC.
Position N 30°51' W 119°44'.
Warning: this ship's position is 10 days out of date.

Type: Cargo ship. MMSI: 367003380.

Date/timePositionNaut miles runAvg speedWind from/ knotsBaromVisibWave heightAir tempDewpointWater temp
2018-Feb-08 23:00N 30°51' W 119°44'918.8
2018-Feb-08 22:30N 30°52' W 119°33'918.9
2018-Feb-08 22:00N 30°54' W 119°22'3818.9
2018-Feb-08 20:00N 31°02' W 118°39'2919.1
2018-Feb-08 18:30N 31°24' W 118°17'7418.4
2018-Feb-08 14:30N 32°23' W 117°26'1515.4
2018-Feb-08 13:30N 32°36' W 117°15'8 0.6
2018-Feb-08 01:25N 32°39' W 117°07'0 0.0
2018-Feb-08 00:55N 32°39' W 117°07'0 0.0
2018-Feb-08 00:25N 32°39' W 117°07'0 0.0
2018-Feb-07 23:49N 32°39' W 117°07'0 0.0
2018-Feb-07 23:28N 32°39' W 117°07'0 0.0
2018-Feb-07 22:55N 32°39' W 117°07'0 0.0
2018-Feb-07 22:28N 32°39' W 117°07'0 0.0
2018-Feb-07 21:58N 32°39' W 117°07'0 0.0
2018-Feb-07 21:28N 32°39' W 117°07'0 0.0
2018-Feb-07 09:25N 32°39' W 117°07'0 0.0
2018-Feb-07 08:49N 32°39' W 117°07'0 0.0
2018-Feb-07 08:25N 32°39' W 117°07'0 0.0
2018-Feb-07 07:55N 32°39' W 117°07'0 0.0
2018-Feb-07 07:25N 32°39' W 117°07'0 0.0
2018-Feb-07 06:55N 32°39' W 117°07'0 0.3
2018-Feb-07 06:30N 32°39' W 117°07'5 6.2
2018-Feb-07 05:39N 32°43' W 117°11'210.1
2018-Feb-07 05:26N 32°42' W 117°14'710.5
2018-Feb-07 04:48N 32°36' W 117°16'310.0
2018-Feb-07 04:30N 32°34' W 117°18'1615.5
2018-Feb-07 03:29N 32°20' W 117°27'815.1
2018-Feb-07 02:56N 32°12' W 117°30'1617.2
2018-Feb-07 02:01N 32°02' W 117°45'317.7
2018-Feb-07 01:51N 31°60' W 117°47'617.8
2018-Feb-07 01:29N 31°54' W 117°51'1517.5
2018-Feb-07 00:37N 31°42' W 118°02'21218.8
2018-Feb-06 13:19N 30°27' W 121°53'85019.6
2018-Feb-04 18:00N 26°36' W 137°24'   080 / 111019.010.8 18.012.7
Track history (hours):
 
Tides and Currents Weather Stations Pressure Air Temp Water Temp Dewpoint Dewpoint Depression Visibility Wind Speed Wind Dir Waves Ship Positions

Jean Anne

Owner: PASHA HAWAII TRANSPORT LINES LLC, National City, CA. More information available from US FCC via Universal Licensing System and Coast Guard Vessel Documentation Center.

Last reported at 2018-Feb-08 23:00 UTC. Time now 2018-Feb-19 00:09 UTC.
Position N 30°51' W 119°44'.
Warning: this ship's position is 10 days out of date.

Type: Cargo ship. MMSI: 367003380.

Date/timePositionNaut miles runAvg speedWind from/ knotsBaromVisibWave heightAir tempDewpointWater temp
2018-Feb-08 23:00N 30°51' W 119°44'918.8
2018-Feb-08 22:30N 30°52' W 119°33'918.9
2018-Feb-08 22:00N 30°54' W 119°22'3818.9
2018-Feb-08 20:00N 31°02' W 118°39'2919.1
2018-Feb-08 18:30N 31°24' W 118°17'7418.4
2018-Feb-08 14:30N 32°23' W 117°26'1515.4
2018-Feb-08 13:30N 32°36' W 117°15'8 0.6
2018-Feb-08 01:25N 32°39' W 117°07'0 0.0
2018-Feb-08 00:55N 32°39' W 117°07'0 0.0
2018-Feb-08 00:25N 32°39' W 117°07'0 0.0
2018-Feb-07 23:49N 32°39' W 117°07'0 0.0
2018-Feb-07 23:28N 32°39' W 117°07'0 0.0
2018-Feb-07 22:55N 32°39' W 117°07'0 0.0
2018-Feb-07 22:28N 32°39' W 117°07'0 0.0
2018-Feb-07 21:58N 32°39' W 117°07'0 0.0
2018-Feb-07 21:28N 32°39' W 117°07'0 0.0
2018-Feb-07 09:25N 32°39' W 117°07'0 0.0
2018-Feb-07 08:49N 32°39' W 117°07'0 0.0
2018-Feb-07 08:25N 32°39' W 117°07'0 0.0
2018-Feb-07 07:55N 32°39' W 117°07'0 0.0
2018-Feb-07 07:25N 32°39' W 117°07'0 0.0
2018-Feb-07 06:55N 32°39' W 117°07'0 0.3
2018-Feb-07 06:30N 32°39' W 117°07'5 6.2
2018-Feb-07 05:39N 32°43' W 117°11'210.1
2018-Feb-07 05:26N 32°42' W 117°14'710.5
2018-Feb-07 04:48N 32°36' W 117°16'310.0
2018-Feb-07 04:30N 32°34' W 117°18'1615.5
2018-Feb-07 03:29N 32°20' W 117°27'815.1
2018-Feb-07 02:56N 32°12' W 117°30'1617.2
2018-Feb-07 02:01N 32°02' W 117°45'317.7
2018-Feb-07 01:51N 31°60' W 117°47'617.8
2018-Feb-07 01:29N 31°54' W 117°51'1517.5
2018-Feb-07 00:37N 31°42' W 118°02'21218.8
2018-Feb-06 13:19N 30°27' W 121°53'85019.6
2018-Feb-04 18:00N 26°36' W 137°24'   080 / 111019.010.8 18.012.7

Dump ship's entire track history